world map with CAM marked

CAM - Airport

This information may not be accurate or current and is not valid for navigation or flight planning. No warranty of fitness for any purpose is made or implied.

flag of Santa Cruzflag of Bolivia

Donate via PayPal

Additional information is available on the NEW Great Circle Mapper

Location
City:  Camiri, Cordillera, Santa Cruz, Bolivia
Near (Alt.):Choreti
Name:Camiri Airport
ICAO / IATA:SLCA / CAM

Details
Type:Airport (Aerodrome, Airfield)
Latitude:20°00'22"S (-20.006110)
Longitude:63°31'40"W (-63.527777)
Elevation:2614 ft (797 m)
Runways:1
Longest:3937 ft (1200 m)

Time
Timezone:UTC+30:08 (DST+32:08)
Local Time:

Weather
METAR:SLCA  041400Z 00000KT 9999 SCT036 OVC070 21/18 Q1024

Related Locations
Nearby:
Farthest:XJH: 12221 mi / 19667 km
Hong Kong [Ferry Terminal], HK

Find:

   beyond  
but within

Other Information
Maps:
Sources:

  


 


Great Circle Mapper   Great Circle Mapper
Great Circle Mapper FAQ   Great Circle Mapper FAQ
  Karl's Home Page
KLSē   KLSē Home
   GC on Facebook
Airlines of the World   Airlines of the World
Donate via PayPal


Copyright © 2004-2019, Karl L. Swartz. All rights reserved.
All trademarks mentioned herein belong to their respective owners.

Please see credits for attribution and copyright information.

Karl Swartz <karl@kls2.com>
  Powered by FreeBSD
Valid HTML 4.01!
Labeled with ICRA
hCard Microformat
Geo Microformat